Terminal Aerodrome Forecast
Issued by NWS

Home | Current Version | Previous Version | Text Only | Print | Product List | Glossary On
Versions: 1 2 3 4 5 6 7 8 9 10 11 12 13 14
000
FTUS44 KOUN 301136
TAFCSM
TAF
KCSM 301136Z 3012/0112 33012KT P6SM SCT012
      TEMPO 3012/3014 BKN012
     FM301500 31013G19KT P6SM SCT250
     FM302300 35010KT P6SM SCT120=

USA.gov is the U.S. government's official web portal to all federal, state and local government web resources and services.